Savoy, Texas
Current Conditions -  °F | °C
As of 11:15 PM on Friday 28 Nov 2014 (Local Time) from KGYI Reporting Station
Clear Clear  
Wind Chill: 62°   Ceiling: Unl
Heat Index: 62°   Visibility: 10mi
Dew Point: 50°   Wind: 22mph
Humidity: 65%   Direction: 200°SSW
Pressure: 29.94"   Gusts: NA
Location:  33.6°N, 96.37°W
Report Text: KGYI 290515Z AUTO 20019KT 10SM CLR 16/10 A2994 RMK AO2 T01640098
Loading
Personal Weather Stations






























Interactive Weather Map New forecast layout! Learn more

10-Day Weather Forecast

Advertisements
Track Severe Weather on mobile